createdAt,value
2019-02-04T00:01:13.590Z,1.83
2019-02-04T00:05:26.259Z,2.37
2019-02-04T00:09:38.833Z,2.30
2019-02-04T00:13:51.241Z,1.63
2019-02-04T00:18:04.062Z,2.33
2019-02-04T00:22:17.780Z,2.10
2019-02-04T00:26:30.232Z,2.00
2019-02-04T00:30:42.775Z,2.50
2019-02-04T00:34:55.537Z,2.57
2019-02-04T00:39:09.436Z,1.80
2019-02-04T00:43:22.620Z,1.73
2019-02-04T00:47:35.081Z,2.77
2019-02-04T00:51:48.063Z,3.30
2019-02-04T00:56:00.793Z,2.87
2019-02-04T01:00:17.104Z,1.80
2019-02-04T01:04:29.446Z,2.40
2019-02-04T01:08:41.939Z,2.43
2019-02-04T01:12:54.815Z,2.03
2019-02-04T01:17:07.200Z,2.20
2019-02-04T01:21:20.752Z,2.50
2019-02-04T01:25:33.553Z,1.90
2019-02-04T01:29:46.486Z,2.43
2019-02-04T01:33:58.821Z,3.53
2019-02-04T01:38:11.704Z,2.60
2019-02-04T01:42:24.161Z,2.67
2019-02-04T01:46:36.578Z,2.43
2019-02-04T01:50:49.464Z,2.67
2019-02-04T01:55:01.920Z,2.50
2019-02-04T01:59:14.974Z,2.77
2019-02-04T02:03:27.584Z,3.23
2019-02-04T02:07:39.975Z,2.27
2019-02-04T02:11:53.525Z,3.00
2019-02-04T02:16:06.616Z,3.20
2019-02-04T02:20:21.243Z,2.47
2019-02-04T02:24:34.007Z,2.77
2019-02-04T02:28:46.533Z,3.17
2019-02-04T02:32:59.482Z,2.67
2019-02-04T02:37:11.913Z,3.23
2019-02-04T02:41:24.911Z,3.20
2019-02-04T02:45:37.356Z,2.70
2019-02-04T02:49:49.756Z,3.33
2019-02-04T02:54:02.686Z,3.47
2019-02-04T02:58:15.192Z,3.63
2019-02-04T03:02:27.998Z,3.80
2019-02-04T03:06:40.569Z,3.80
2019-02-04T03:10:52.976Z,3.80
2019-02-04T03:15:06.346Z,3.93
2019-02-04T03:19:18.732Z,3.40
2019-02-04T03:23:31.621Z,3.30
2019-02-04T03:27:44.084Z,4.00
2019-02-04T03:31:56.548Z,3.03
2019-02-04T03:36:09.341Z,2.40
2019-02-04T03:40:24.269Z,3.33
2019-02-04T03:44:36.812Z,2.20
2019-02-04T03:48:49.221Z,2.70
2019-02-04T03:53:02.202Z,2.47
2019-02-04T03:57:14.782Z,3.03
2019-02-04T04:01:28.140Z,2.50
2019-02-04T04:05:40.636Z,2.80
2019-02-04T04:09:53.617Z,3.00
2019-02-04T04:14:06.168Z,3.60
2019-02-04T04:18:19.164Z,3.60
2019-02-04T04:22:31.725Z,2.80
2019-02-04T04:26:44.139Z,3.37
2019-02-04T04:30:56.684Z,3.60
2019-02-04T04:35:09.553Z,3.40
2019-02-04T04:39:21.896Z,3.43
2019-02-04T04:43:34.781Z,3.37
2019-02-04T04:47:47.343Z,3.47
2019-02-04T04:51:59.755Z,3.50
2019-02-04T04:56:12.644Z,3.33
2019-02-04T05:00:30.069Z,4.03
2019-02-04T05:04:42.909Z,2.97
2019-02-04T05:08:55.462Z,3.20
2019-02-04T05:13:09.012Z,4.47
2019-02-04T05:17:21.437Z,4.10
2019-02-04T05:21:35.329Z,3.60
2019-02-04T05:25:47.992Z,3.07
2019-02-04T05:30:00.506Z,3.77
2019-02-04T05:34:13.725Z,3.10
2019-02-04T05:38:26.220Z,2.97
2019-02-04T05:42:39.044Z,3.00
2019-02-04T05:46:52.149Z,2.60
2019-02-04T05:51:04.799Z,3.87
2019-02-04T05:55:18.801Z,3.03
2019-02-04T05:59:31.683Z,2.80
2019-02-04T06:03:44.236Z,4.03
2019-02-04T06:07:56.727Z,2.90
2019-02-04T06:12:09.336Z,4.40
2019-02-04T06:16:21.797Z,3.17
2019-02-04T06:20:34.801Z,4.13
2019-02-04T06:24:47.346Z,3.93
2019-02-04T06:28:59.750Z,3.43
2019-02-04T06:33:12.296Z,3.43
2019-02-04T06:37:24.997Z,3.87
2019-02-04T06:41:37.580Z,4.07
2019-02-04T06:45:50.417Z,4.40
2019-02-04T06:50:04.293Z,3.80
2019-02-04T06:54:16.601Z,4.60
2019-02-04T06:58:29.014Z,4.77
2019-02-04T07:02:42.008Z,4.37
2019-02-04T07:06:54.457Z,3.80
2019-02-04T07:11:07.648Z,4.93
2019-02-04T07:15:20.163Z,4.07
2019-02-04T07:19:33.003Z,3.63
2019-02-04T07:23:45.565Z,3.47
2019-02-04T07:27:57.977Z,3.80
2019-02-04T07:32:10.869Z,4.50
2019-02-04T07:36:23.383Z,4.47
2019-02-04T07:40:36.865Z,4.30
2019-02-04T07:44:49.936Z,4.63
2019-02-04T07:49:02.404Z,4.20
2019-02-04T07:53:14.813Z,4.73
2019-02-04T07:57:27.712Z,3.83
2019-02-04T08:01:40.478Z,4.53
2019-02-04T08:05:53.365Z,5.00
2019-02-04T08:10:07.103Z,4.97
2019-02-04T08:14:19.630Z,4.33
2019-02-04T08:18:32.448Z,4.47
2019-02-04T08:22:45.124Z,5.00
2019-02-04T08:26:57.991Z,3.90
2019-02-04T08:31:10.560Z,4.13
2019-02-04T08:35:23.876Z,4.63
2019-02-04T08:39:36.230Z,3.23
2019-02-04T08:43:49.201Z,4.90
2019-02-04T08:48:01.831Z,4.37
2019-02-04T08:52:14.639Z,3.70
2019-02-04T08:56:27.204Z,4.20
2019-02-04T09:00:39.616Z,4.13
2019-02-04T09:04:52.514Z,3.83
2019-02-04T09:09:06.685Z,3.60
2019-02-04T09:13:19.016Z,2.57
2019-02-04T09:17:31.914Z,3.17
2019-02-04T09:21:44.351Z,3.63
2019-02-04T09:25:56.761Z,3.37
2019-02-04T09:30:18.862Z,3.07
2019-02-04T09:34:31.561Z,3.70
2019-02-04T09:38:44.466Z,3.17
2019-02-04T09:42:57.093Z,3.70
2019-02-04T09:47:09.968Z,3.33
2019-02-04T09:51:22.696Z,3.60
2019-02-04T09:55:36.717Z,3.30
2019-02-04T09:59:49.422Z,3.30
2019-02-04T10:04:02.241Z,4.67
2019-02-04T10:08:15.019Z,4.20
2019-02-04T10:12:27.480Z,2.73
2019-02-04T10:16:40.680Z,3.27
2019-02-04T10:20:53.141Z,3.23
2019-02-04T10:25:06.019Z,3.03
2019-02-04T10:29:18.703Z,3.10
2019-02-04T10:33:31.110Z,3.60
2019-02-04T10:37:43.940Z,3.20
2019-02-04T10:41:56.637Z,3.37
2019-02-04T10:46:09.184Z,4.00
2019-02-04T10:50:23.926Z,4.07
2019-02-04T10:54:36.297Z,3.27
2019-02-04T10:58:49.053Z,3.50
2019-02-04T11:03:01.539Z,4.57
2019-02-04T11:07:13.929Z,3.57
2019-02-04T11:11:26.825Z,4.37
2019-02-04T11:15:39.555Z,5.10
2019-02-04T11:19:52.390Z,4.70
2019-02-04T11:24:05.149Z,4.43
2019-02-04T11:28:18.119Z,4.30
2019-02-04T11:32:31.779Z,3.93
2019-02-04T11:36:44.337Z,4.13
2019-02-04T11:40:57.202Z,4.20
2019-02-04T11:45:09.836Z,3.97
2019-02-04T11:49:22.729Z,3.90
2019-02-04T11:53:35.282Z,3.83
2019-02-04T11:57:47.903Z,3.00
2019-02-04T12:02:01.824Z,3.43
2019-02-04T12:06:17.397Z,2.93
2019-02-04T12:10:36.982Z,2.97
2019-02-04T12:14:49.436Z,2.87
2019-02-04T12:19:02.436Z,3.13
2019-02-04T12:23:14.891Z,3.13
2019-02-04T12:27:32.146Z,3.00
2019-02-04T12:31:41.732Z,3.40
2019-02-04T12:35:54.398Z,3.00
2019-02-04T12:40:07.747Z,3.00
2019-02-04T12:44:20.248Z,2.77
2019-02-04T12:48:33.034Z,2.40
2019-02-04T12:52:45.495Z,2.50
2019-02-04T12:56:58.221Z,2.07
2019-02-04T13:01:11.024Z,2.43
2019-02-04T13:05:25.961Z,1.87
2019-02-04T13:09:38.312Z,2.20
2019-02-04T13:13:50.725Z,2.00
2019-02-04T13:18:03.513Z,2.47
2019-02-04T13:22:16.184Z,3.60
2019-02-04T13:26:29.081Z,3.23
2019-02-04T13:30:41.681Z,2.80
2019-02-04T13:34:54.608Z,2.70
2019-02-04T13:39:09.956Z,2.40
2019-02-04T13:43:22.365Z,2.33
2019-02-04T13:47:34.751Z,2.20
2019-02-04T13:51:57.132Z,1.67
2019-02-04T13:56:01.591Z,1.67
2019-02-04T14:00:16.001Z,1.40
2019-02-04T14:04:28.626Z,1.13
2019-02-04T14:08:41.055Z,1.17
2019-02-04T14:12:54.042Z,1.07
2019-02-04T14:17:06.706Z,1.10
2019-02-04T14:21:20.000Z,1.10
2019-02-04T14:25:32.435Z,1.73
2019-02-04T14:29:45.343Z,1.50
2019-02-04T14:33:58.234Z,1.50
2019-02-04T14:38:11.633Z,1.43
2019-02-04T14:42:24.557Z,1.40
2019-02-04T14:47:20.319Z,3.53
2019-02-04T14:51:54.340Z,2.50
2019-02-04T14:56:59.792Z,1.30
2019-02-04T15:02:01.813Z,1.50
2019-02-04T15:06:35.748Z,1.80
2019-02-04T15:11:13.505Z,2.93
2019-02-04T15:16:03.928Z,2.00
2019-02-04T15:20:44.544Z,1.80
2019-02-04T15:25:26.640Z,1.90
2019-02-04T15:29:53.083Z,2.00
2019-02-04T15:34:50.680Z,1.73
2019-02-04T15:39:18.358Z,1.90
2019-02-04T15:44:17.908Z,1.77
2019-02-04T15:48:46.604Z,2.00
2019-02-04T15:52:59.577Z,2.10
2019-02-04T15:57:12.132Z,1.80
2019-02-04T16:01:25.079Z,1.77
2019-02-04T16:05:37.825Z,1.40
2019-02-04T16:09:50.305Z,1.30
2019-02-04T16:14:03.842Z,1.50
2019-02-04T16:18:16.249Z,1.20
2019-02-04T16:22:29.597Z,1.40
2019-02-04T16:26:42.012Z,1.30
2019-02-04T16:30:54.802Z,1.20
2019-02-04T16:35:08.418Z,1.30
2019-02-04T16:39:21.137Z,1.50
2019-02-04T16:43:33.880Z,2.10
2019-02-04T16:47:46.507Z,1.80
2019-02-04T16:51:59.369Z,1.60
2019-02-04T16:56:11.998Z,2.30
2019-02-04T17:00:26.677Z,2.13
2019-02-04T17:04:39.282Z,1.70
2019-02-04T17:08:51.753Z,1.63
2019-02-04T17:13:04.621Z,1.30
2019-02-04T17:17:17.140Z,1.70
2019-02-04T17:21:30.031Z,2.00
2019-02-04T17:25:42.584Z,2.30
2019-02-04T17:29:54.991Z,3.00
2019-02-04T17:34:07.884Z,2.40
2019-02-04T17:38:20.420Z,2.83
2019-02-04T17:42:33.400Z,2.87
2019-02-04T17:46:45.893Z,3.03
2019-02-04T17:50:58.306Z,3.07
2019-02-04T17:55:13.638Z,3.40
2019-02-04T17:59:26.378Z,5.80
2019-02-04T18:03:38.833Z,4.90
2019-02-04T18:07:51.405Z,4.67
2019-02-04T18:12:04.041Z,3.73
2019-02-04T18:16:16.383Z,4.17
2019-02-04T18:20:29.274Z,4.53
2019-02-04T18:24:42.052Z,3.70
2019-02-04T18:28:55.035Z,4.20
2019-02-04T18:33:07.489Z,5.10
2019-02-04T18:37:20.567Z,4.70
2019-02-04T18:41:33.200Z,4.73
2019-02-04T18:45:45.597Z,5.57
2019-02-04T18:49:58.231Z,6.00
2019-02-04T18:54:10.792Z,8.50
2019-02-04T18:58:23.681Z,8.17
2019-02-04T19:02:36.133Z,7.57
2019-02-04T19:06:48.547Z,9.97
2019-02-04T19:11:01.780Z,14.00
2019-02-04T19:15:16.576Z,15.10
2019-02-04T19:19:29.180Z,13.33
2019-02-04T19:23:42.164Z,11.13
2019-02-04T19:27:54.829Z,10.37
2019-02-04T19:32:07.860Z,8.03
2019-02-04T19:36:20.607Z,7.57
2019-02-04T19:40:33.833Z,8.10
2019-02-04T19:44:46.436Z,8.20
2019-02-04T19:48:59.340Z,10.37
2019-02-04T19:53:11.976Z,9.00
2019-02-04T19:57:24.390Z,7.83
2019-02-04T20:01:37.731Z,10.10
2019-02-04T20:05:51.344Z,9.50
2019-02-04T20:10:04.765Z,8.77
2019-02-04T20:14:18.447Z,8.20
2019-02-04T20:18:31.340Z,8.93
2019-02-04T20:22:43.905Z,8.20
2019-02-04T20:26:56.797Z,6.80
2019-02-04T20:31:09.360Z,7.53
2019-02-04T20:35:21.867Z,7.93
2019-02-04T20:39:34.895Z,8.67
2019-02-04T20:43:47.426Z,9.20
2019-02-04T20:48:00.584Z,8.60
2019-02-04T20:52:13.063Z,8.57
2019-02-04T20:56:26.051Z,8.63
2019-02-04T21:00:38.641Z,8.30
2019-02-04T21:04:51.029Z,9.07
2019-02-04T21:09:04.831Z,8.20
2019-02-04T21:13:17.559Z,8.43
2019-02-04T21:17:29.970Z,9.30
2019-02-04T21:21:42.826Z,10.17
2019-02-04T21:25:55.373Z,10.70
2019-02-04T21:30:12.293Z,11.27
2019-02-04T21:34:25.770Z,10.73
2019-02-04T21:38:38.623Z,10.17
2019-02-04T21:42:51.350Z,10.90
2019-02-04T21:47:04.443Z,12.70
2019-02-04T21:51:16.924Z,11.80
2019-02-04T21:55:29.818Z,13.27
2019-02-04T21:59:42.504Z,14.40
2019-02-04T22:03:55.576Z,13.13
2019-02-04T22:08:08.392Z,15.03
2019-02-04T22:12:22.105Z,16.00
2019-02-04T22:16:35.493Z,15.00
2019-02-04T22:20:49.805Z,15.07
2019-02-04T22:25:02.380Z,15.03
2019-02-04T22:29:16.136Z,15.97
2019-02-04T22:33:30.332Z,15.73
2019-02-04T22:37:43.007Z,16.77
2019-02-04T22:41:58.125Z,15.67
2019-02-04T22:46:10.748Z,16.83
2019-02-04T22:50:30.585Z,16.30
2019-02-04T22:54:44.820Z,17.73
2019-02-04T22:58:57.481Z,19.00
2019-02-04T23:03:09.939Z,18.93
2019-02-04T23:07:22.310Z,19.33
2019-02-04T23:11:35.749Z,19.07
2019-02-04T23:15:48.741Z,19.60
2019-02-04T23:20:01.261Z,20.63
2019-02-04T23:24:14.159Z,20.17
2019-02-04T23:28:26.852Z,20.17
2019-02-04T23:32:39.476Z,20.57
2019-02-04T23:36:52.354Z,20.50
2019-02-04T23:41:06.275Z,20.27
2019-02-04T23:45:18.760Z,20.57
2019-02-04T23:49:31.542Z,20.07
2019-02-04T23:53:44.464Z,19.93
2019-02-04T23:57:57.188Z,20.20
